Opelousas, LA

5:43 PM CDT on March 31, 2015 (GMT -0500)
Gulino Street | | Change Station
CLOSE
Current Station
Personal Weather Station
Location: Opelousas, LA
Elevation: 89 ft
Nearby Weather Stations

Elev 89 ft 30.55 °N, 92.07 °W | Updated 15 seconds ago

Scattered Clouds
Scattered Clouds
80.8 °F
Feels Like 83 °F
N
3.4
Wind Variable Wind from West
Gusts 8.1 mph

Today
High -- | Low -- °F
--% Chance of Precip.
Yesterday
High -- | Low -- °F
Precip. -- in
6:58 AM 7:26 PM
Waxing Gibbous, 89% visible
Pressure 30.00 in
Visibility 10.0 miles
Clouds Scattered Clouds 4500 ft
Heat Index 83 °F
Dew Point 65 °F
Humidity 59%
Rainfall 0.00 in
Snow Depth Not available.
UV 2 out of 12
Pollen 10.50 out of 12
Air Quality Not available.
Flu Activity Not available.
METAR KOPL 312235Z AUTO 23012G16KT 10SM SCT045 26/15 A3000 RMK AO2 T02550153

More Conditions Fewer Conditions

Pressure 30.00 in
Visibility 10.0 miles
Clouds Scattered Clouds 4500 ft
Heat Index 83 °F
Dew Point 65 °F
Humidity 59%
Rainfall 0.00 in
Snow Depth Not available.
UV 2 out of 12
Pollen 10.50 out of 12
Air Quality Not available.
Flu Activity Not available.
METAR KOPL 312235Z AUTO 23012G16KT 10SM SCT045 26/15 A3000 RMK AO2 T02550153

More Conditions Fewer Conditions

10-Day Weather Forecast

Almanac

Astronomy

Mar. 31, 2015 Rise Set
Actual Time
Civil Twilight
Nautical Twilight
Astronomical Twilight
Moon
Length of Visible Light
Length of Day
Tomorrow will be .
, % of the Moon is Illuminated

Today's Extremes

State Highs State Lows

Community

WunderPhotos

Upload Photos

1,809,864 photos uploaded!

WunderBlogs® & News

Nearby

Air Quality

  Air Quality AQ Index Pollutant
Not available.

Snow Depth

Station Depth Elevation

Earthquake Activity

City Distance Mag. Time & Date
Minimum magnitude displayed is 2.5.

Coastal Water Temperatures

Place Temperature

Stations

Nearby Weather Stations

Station Location Temp. Windchill Dew Point Humidity Wind Precip. Elev Updated Type